Latest Weather Observations for Redcliffe

IDQ60901

Issued at 11:41 am EST Friday 18 October 2019 (issued every 10 minutes, with the page automatically refreshed every 10 minutes)

About weather observations | Map of Brisbane area stations | Latest observations for Brisbane area | Other Formats
Station Details ID: 040958 Name: REDCLIFFE Lat: -27.22 Lon: 153.09 Height: 12.6 m
Data from the previous 72 hours. | See also: Recent months at Redcliffe
Date/Time
EST
Temp
°C
App
Temp
°C
Dew
Point
°C
Rel
Hum
%
Delta-T
°C
Wind Press
QNH
hPa
Press
MSL
hPa
Rain since
9am
mm
Dir  Spd
km/h
Gust
km/h
Spd
kts
Gust
kts
18/11:30am 24.2 21.8 17.4 65 4.2 ESE 26 30 14 16 1017.4 1017.3 0.0
18/11:00am 25.3 24.4 18.2 64 4.5 ESE 20 28 11 15 1017.6 1017.5 0.0
18/10:30am 24.4 22.6 16.9 63 4.6 SSE 22 26 12 14 1017.6 1017.5 0.0
18/10:00am 24.8 22.5 17.5 64 4.5 SSE 26 30 14 16 1017.4 1017.3 0.0
18/09:30am 24.5 22.8 18.2 68 4.0 SSE 24 30 13 16 1017.3 1017.2 0.0
18/09:00am 24.6 23.4 18.3 68 4.0 SSE 22 26 12 14 1017.7 1017.6 1.0
18/08:30am 23.0 20.8 17.9 73 3.2 SSE 26 30 14 16 1017.3 1017.2 1.0
18/08:00am 23.2 20.8 18.3 74 3.1 SSE 28 32 15 17 1017.3 1017.2 1.0
18/07:30am 23.0 20.3 18.5 76 2.8 SSE 30 35 16 19 1016.7 1016.6 1.0
18/07:00am 23.0 19.8 17.2 70 3.6 SSE 30 37 16 20 1016.2 1016.1 1.0
18/06:30am 22.2 20.0 16.9 72 3.2 S 24 32 13 17 1015.9 1015.8 1.0
18/06:00am 21.8 21.9 18.4 81 2.1 SE 15 17 8 9 1015.2 1015.1 1.0
18/05:30am 20.4 21.4 18.7 90 1.1 SE 11 17 6 9 1014.6 1014.5 1.0
18/05:00am 20.2 21.9 18.1 88 1.3 ESE 6 7 3 4 1013.6 1013.5 1.0
18/04:30am 20.6 21.9 18.4 87 1.4 E 9 9 5 5 1013.4 1013.3 1.0
18/04:00am 20.7 22.1 17.9 84 1.7 SSE 7 9 4 5 1012.9 1012.8 1.0
18/03:30am 20.7 22.1 17.7 83 1.8 S 7 9 4 5 1012.7 1012.6 1.0
18/03:00am 21.1 22.7 17.9 82 2.0 SE 6 9 3 5 1012.6 1012.5 1.0
18/02:30am 21.2 21.9 16.2 73 3.0 S 7 7 4 4 1012.4 1012.3 1.0
18/02:00am 21.6 22.0 15.2 67 3.8 SSW 7 11 4 6 1012.4 1012.3 1.0
18/01:30am 22.5 22.6 15.4 64 4.2 WSW 9 13 5 7 1012.7 1012.6 1.0
18/01:00am 22.1 23.2 17.0 73 3.1 SW 7 7 4 4 1013.1 1013.0 1.0
18/12:30am 21.0 22.2 18.2 84 1.7 SE 9 13 5 7 1013.5 1013.4 1.0
18/12:00am 21.0 22.2 18.2 84 1.7 SW 9 11 5 6 1013.7 1013.6 1.0
 
Date/Time
EST
Temp
°C
App
Temp
°C
Dew
Point
°C
Rel
Hum
%
Delta-T
°C
Wind Press
QNH
hPa
Press
MSL
hPa
Rain since
9am
mm
Dir  Spd
km/h
Gust
km/h
Spd
kts
Gust
kts
17/11:30pm 21.2 21.8 18.6 85 1.6 SW 13 15 7 8 1013.7 1013.6 1.0
17/11:00pm 21.0 22.7 18.4 85 1.6 SW 7 7 4 4 1014.0 1013.9 1.0
17/10:30pm 21.6 23.4 18.8 84 1.8 ENE 7 9 4 5 1013.9 1013.8 1.0
17/10:00pm 21.7 24.1 18.9 84 1.8 WSW 4 11 2 6 1013.7 1013.6 1.0
17/09:30pm 21.9 23.1 19.1 84 1.8 WSW 11 17 6 9 1013.4 1013.3 1.0
17/09:00pm 21.7 23.0 19.3 86 1.5 SSW 11 15 6 8 1013.0 1012.9 1.0
17/08:30pm 22.0 24.5 19.0 83 1.9 W 4 9 2 5 1013.0 1012.9 1.0
17/08:00pm 22.8 24.0 19.8 83 1.9 N 13 19 7 10 1012.3 1012.2 1.0
17/07:30pm 23.2 23.2 19.8 81 2.2 N 19 24 10 13 1012.0 1011.9 1.0
17/07:00pm 23.7 22.0 19.8 79 2.5 NNE 28 35 15 19 1011.6 1011.5 1.0
17/06:30pm 23.9 19.0 19.4 76 2.9 NE 44 50 24 27 1012.2 1012.1 1.0
17/06:23pm 24.0 19.6 19.3 75 3.0 NE 41 50 22 27 1011.8 1011.7 1.0
17/06:00pm 23.4 21.3 19.8 80 2.3 ENE 30 37 16 20 1011.3 1011.2 1.0
17/05:30pm 22.7 21.2 18.5 77 2.6 SSE 24 33 13 18 1011.4 1011.3 0.6
17/05:11pm 25.5 22.0 18.7 66 4.3 NNW 35 56 19 30 1011.9 1011.8 0.0
17/05:09pm 25.3 21.1 19.0 68 4.0 N 39 54 21 29 1011.7 1011.6 0.0
17/05:07pm 25.1 20.6 19.0 69 3.9 NNE 41 54 22 29 1011.2 1011.1 0.0
17/05:00pm 25.1 19.5 18.8 68 4.0 NNE 46 56 25 30 1009.1 1009.0 0.0
17/04:30pm 25.0 18.3 18.9 69 3.9 NNE 52 65 28 35 1008.0 1007.9 0.0
17/04:00pm 25.6 17.9 18.8 66 4.3 NNE 57 70 31 38 1008.1 1008.0 0.0
17/03:30pm 25.8 18.7 18.7 65 4.5 NNE 54 63 29 34 1008.1 1008.0 0.0
17/03:00pm 25.8 19.4 18.7 65 4.5 NNE 50 57 27 31 1008.4 1008.3 0.0
17/02:30pm 25.8 18.9 18.5 64 4.6 NNE 52 59 28 32 1009.2 1009.1 0.0
17/02:00pm 26.0 20.2 18.4 63 4.8 NNE 46 57 25 31 1009.8 1009.7 0.0
17/01:30pm 26.0 20.4 18.7 64 4.7 NNE 46 56 25 30 1010.6 1010.5 0.0
17/01:00pm 25.9 20.2 18.6 64 4.7 NNE 46 54 25 29 1010.9 1010.8 0.0
17/12:30pm 26.2 21.7 19.1 65 4.6 NNE 41 48 22 26 1011.4 1011.3 0.0
17/12:00pm 25.7 20.7 18.9 66 4.3 NNE 43 50 23 27 1012.3 1012.2 0.0
17/11:30am 25.9 22.3 19.3 67 4.2 NNE 37 44 20 24 1012.8 1012.7 0.0
17/11:00am 28.5 24.5 17.7 52 6.8 NNE 35 41 19 22 1013.3 1013.2 0.0
17/10:30am 27.9 24.6 17.1 51 6.8 NNE 30 35 16 19 1013.6 1013.5 0.0
17/10:00am 27.5 24.7 17.4 54 6.3 N 28 35 15 19 1014.0 1013.9 0.0
17/09:30am 26.5 23.7 17.3 57 5.8 N 28 35 15 19 1014.3 1014.2 0.0
17/09:00am 25.6 23.1 18.0 63 4.8 N 28 37 15 20 1014.5 1014.4 0.0
17/08:30am 24.9 21.0 17.9 65 4.4 N 35 44 19 24 1014.4 1014.3 0.0
17/08:00am 23.9 20.8 18.3 71 3.5 N 32 37 17 20 1014.2 1014.1 0.0
17/07:30am 23.2 20.8 18.3 74 3.1 N 28 35 15 19 1014.7 1014.6 0.0
17/07:00am 22.6 21.6 17.9 75 2.9 N 20 32 11 17 1014.7 1014.6 0.0
17/06:30am 21.6 20.1 17.6 78 2.5 N 22 30 12 16 1014.8 1014.7 0.0
17/06:00am 21.5 18.2 17.9 80 2.2 NNE 32 35 17 19 1014.5 1014.4 0.0
17/05:30am 20.9 17.9 17.7 82 2.0 N 30 37 16 20 1014.5 1014.4 0.0
17/05:00am 20.3 19.9 17.1 82 1.9 N 15 24 8 13 1015.3 1015.2 0.0
17/04:30am 20.6 19.8 17.2 81 2.1 N 17 22 9 12 1015.3 1015.2 0.0
17/04:00am 20.9 20.7 17.5 81 2.1 N 15 20 8 11 1015.0 1014.9 0.0
17/03:30am 20.8 20.4 17.2 80 2.2 N 15 22 8 12 1014.4 1014.3 0.0
17/03:00am 21.1 20.8 17.3 79 2.3 N 15 26 8 14 1013.8 1013.7 0.0
17/02:30am 21.1 18.8 17.5 80 2.2 N 26 32 14 17 1013.3 1013.2 0.0
17/02:00am 21.1 17.7 17.7 81 2.1 N 32 37 17 20 1013.3 1013.2 0.0
17/01:30am 21.2 19.6 17.4 79 2.3 N 22 33 12 18 1013.7 1013.6 0.0
17/01:00am 21.4 19.0 17.4 78 2.5 N 26 35 14 19 1013.9 1013.8 0.0
17/12:30am 21.5 19.2 17.5 78 2.5 N 26 33 14 18 1013.9 1013.8 0.0
17/12:00am 21.6 18.7 18.0 80 2.2 N 30 37 16 20 1014.0 1013.9 0.0
 
Date/Time
EST
Temp
°C
App
Temp
°C
Dew
Point
°C
Rel
Hum
%
Delta-T
°C
Wind Press
QNH
hPa
Press
MSL
hPa
Rain since
9am
mm
Dir  Spd
km/h
Gust
km/h
Spd
kts
Gust
kts
16/11:30pm 21.6 18.1 17.8 79 2.4 N 33 44 18 24 1014.1 1014.0 0.0
16/11:00pm 21.8 18.2 17.6 77 2.6 N 33 43 18 23 1014.2 1014.1 0.0
16/10:30pm 22.0 18.1 17.8 77 2.6 N 35 43 19 23 1014.2 1014.1 0.0
16/10:00pm 22.2 16.6 17.8 76 2.7 NNE 44 52 24 28 1014.0 1013.9 0.0
16/09:30pm 22.5 18.5 17.6 74 3.0 N 35 48 19 26 1014.3 1014.2 0.0
16/09:00pm 22.8 18.5 17.7 73 3.2 N 37 52 20 28 1014.0 1013.9 0.0
16/08:30pm 22.8 18.2 18.1 75 2.9 N 39 48 21 26 1013.9 1013.8 0.0
16/08:00pm 22.8 18.1 18.6 77 2.6 N 41 50 22 27 1013.9 1013.8 0.0
16/07:30pm 23.0 17.8 18.7 77 2.7 NNE 44 56 24 30 1013.6 1013.5 0.0
16/07:00pm 22.9 17.0 18.9 78 2.5 NNE 48 56 26 30 1013.4 1013.3 0.0
16/06:30pm 23.0 16.8 19.0 78 2.5 NNE 50 59 27 32 1013.2 1013.1 0.0
16/06:00pm 23.2 17.2 18.7 76 2.8 NNE 48 56 26 30 1012.9 1012.8 0.0
16/05:30pm 23.5 17.9 18.8 75 3.0 NNE 46 54 25 29 1012.8 1012.7 0.0
16/05:00pm 23.9 19.0 19.0 74 3.1 NNE 43 50 23 27 1012.8 1012.7 0.0
16/04:30pm 24.0 18.9 18.6 72 3.4 NNE 43 52 23 28 1012.6 1012.5 0.0
16/04:00pm 24.5 19.3 18.9 71 3.6 NNE 44 52 24 28 1012.1 1012.0 0.0
16/03:30pm 24.7 19.5 18.4 68 4.0 NNE 43 48 23 26 1012.3 1012.2 0.0
16/03:00pm 25.0 19.9 18.7 68 4.0 NNE 43 50 23 27 1012.3 1012.2 0.0
16/02:30pm 25.0 20.7 18.7 68 4.0 NNE 39 46 21 25 1012.3 1012.2 0.0
16/02:00pm 25.3 21.9 19.0 68 4.0 NE 35 41 19 22 1012.6 1012.5 0.0
16/01:30pm 25.6 22.4 18.5 65 4.5 NE 33 41 18 22 1012.7 1012.6 0.0
16/01:00pm 25.5 22.1 17.7 62 4.9 NE 32 35 17 19 1013.4 1013.3 0.0
16/12:30pm 26.4 23.5 18.8 63 4.9 NE 32 33 17 18 1013.7 1013.6 0.0
16/12:00pm 26.2 23.0 18.1 61 5.1 NE 32 35 17 19 1014.2 1014.1 0.0
16/11:30am 25.7 22.9 18.1 63 4.8 NE 30 33 16 18 1014.7 1014.6 0.0
16/11:00am 27.1 25.7 18.9 61 5.3 NE 24 32 13 17 1015.1 1015.0 0.0
16/10:30am 24.9 23.5 17.9 65 4.4 NNE 22 28 12 15 1015.7 1015.6 0.0
16/10:00am 24.8 23.7 17.8 65 4.4 NNE 20 26 11 14 1016.3 1016.2 0.0
16/09:30am 25.4 24.7 18.3 65 4.5 NNE 19 24 10 13 1016.4 1016.3 0.0
16/09:00am 25.1 24.8 19.2 70 3.8 N 19 26 10 14 1016.7 1016.6 0.0
16/08:30am 23.6 23.3 18.3 72 3.3 N 17 22 9 12 1016.7 1016.6 0.0
16/08:00am 23.4 22.2 18.3 73 3.2 N 22 32 12 17 1016.7 1016.6 0.0
16/07:30am 22.7 21.9 18.5 77 2.6 N 20 30 11 16 1016.5 1016.4 0.0
16/07:00am 21.6 20.8 18.4 82 2.0 N 20 28 11 15 1016.1 1016.0 0.0
16/06:30am 20.3 19.3 17.5 84 1.7 N 19 24 10 13 1015.9 1015.8 0.0
16/06:00am 21.2 19.9 18.2 83 1.9 N 22 28 12 15 1015.7 1015.6 0.0
16/05:30am 21.0 20.4 18.4 85 1.6 N 19 26 10 14 1015.6 1015.5 0.0
16/05:00am 20.5 19.7 18.4 88 1.3 N 20 28 11 15 1015.2 1015.1 0.0
16/04:30am 19.3 19.6 17.1 87 1.3 N 11 15 6 8 1015.2 1015.1 0.0
16/04:00am 19.6 20.1 17.4 87 1.3 N 11 13 6 7 1014.9 1014.8 0.0
16/03:30am 19.8 19.8 17.2 85 1.6 N 13 17 7 9 1014.5 1014.4 0.0
16/03:00am 20.4 19.7 17.4 83 1.8 N 17 20 9 11 1014.3 1014.2 0.0
16/02:30am 21.1 20.3 17.9 82 2.0 N 19 24 10 13 1014.1 1014.0 0.0
16/02:00am 21.2 20.2 17.6 80 2.2 N 19 24 10 13 - - 0.0
16/01:30am 21.3 20.2 17.7 80 2.2 N 20 26 11 14 1014.1 1014.0 0.0
16/01:00am 21.4 20.8 17.6 79 2.3 N 17 24 9 13 1014.3 1014.2 0.0
16/12:30am 21.5 20.4 17.7 79 2.3 N 20 28 11 15 1014.5 1014.4 0.0
16/12:00am 21.6 20.6 17.6 78 2.5 N 19 28 10 15 1014.5 1014.4 0.0
 
Date/Time
EST
Temp
°C
App
Temp
°C
Dew
Point
°C
Rel
Hum
%
Delta-T
°C
Wind Press
QNH
hPa
Press
MSL
hPa
Rain since
9am
mm
Dir  Spd
km/h
Gust
km/h
Spd
kts
Gust
kts
15/11:30pm 21.8 19.2 17.8 78 2.5 NNE 28 33 15 18 1014.6 1014.5 0.0
15/11:00pm 21.8 19.4 18.2 80 2.2 NNE 28 32 15 17 1014.4 1014.3 0.0
15/10:30pm 21.9 19.8 18.9 83 1.9 NNE 28 32 15 17 1014.4 1014.3 0.0
15/10:00pm 21.9 19.8 18.9 83 1.9 NNE 28 33 15 18 1014.3 1014.2 0.0
15/09:30pm 22.0 19.8 18.8 82 2.0 NNE 28 33 15 18 1014.2 1014.1 0.0
15/09:00pm 22.1 19.6 18.9 82 2.0 NNE 30 35 16 19 1013.9 1013.8 0.0
15/08:30pm 22.1 19.9 18.7 81 2.1 NE 28 32 15 17 1013.7 1013.6 0.0
15/08:00pm 22.2 19.6 18.6 80 2.3 NE 30 35 16 19 1013.6 1013.5 0.0
15/07:30pm 22.2 19.5 18.4 79 2.4 NE 30 33 16 18 1013.2 1013.1 0.0
15/07:00pm 22.3 19.2 18.5 79 2.4 NE 32 37 17 20 1012.8 1012.7 0.0
15/06:30pm 22.3 19.6 18.5 79 2.4 NE 30 33 16 18 1012.7 1012.6 0.0
15/06:00pm 22.3 19.5 18.3 78 2.5 NE 30 33 16 18 1012.4 1012.3 0.0
15/05:30pm 22.7 19.8 18.0 75 2.9 NE 30 37 16 20 1011.9 1011.8 0.0
15/05:00pm 22.9 19.5 17.8 73 3.2 NE 32 37 17 20 1011.6 1011.5 0.0
15/04:30pm 23.0 19.6 17.7 72 3.3 NE 32 39 17 21 1011.2 1011.1 0.0
15/04:00pm 23.2 19.6 17.7 71 3.4 NE 33 39 18 21 1011.0 1010.9 0.0
15/03:30pm 23.7 20.2 17.9 70 3.6 NE 33 39 18 21 1010.9 1010.8 0.0
15/03:00pm 24.8 21.0 18.0 66 4.3 NE 35 41 19 22 1011.0 1010.9 0.0
15/02:30pm 24.9 21.3 18.6 68 4.0 NE 35 39 19 21 1011.0 1010.9 0.0
15/02:00pm 24.5 20.1 17.5 65 4.4 NE 37 43 20 23 1011.3 1011.2 0.0
15/01:30pm 24.7 21.2 17.9 66 4.3 NE 33 41 18 22 1011.5 1011.4 0.0
15/01:00pm 25.1 21.2 17.8 64 4.6 NE 35 39 19 21 1011.8 1011.7 0.0
15/12:30pm 24.1 20.3 17.1 65 4.3 NE 33 39 18 21 1012.4 1012.3 0.0
15/12:00pm 25.5 22.0 16.6 58 5.5 NE 30 35 16 19 1012.8 1012.7 0.0

Latest Capital City Observations: Canberra | Sydney | Melbourne | Brisbane | Adelaide | Perth | Hobart | Darwin

Other formats

Comma delimited format used in spreadsheet applications
http://www.bom.gov.au/fwo/IDQ60901/IDQ60901.95591.axf

JavaScript Object Notation format (JSON) in row-major order
http://www.bom.gov.au/fwo/IDQ60901/IDQ60901.95591.json

Data quality

Most of these data are generated automatically and are frequently updated. Quality checks on data are not normally performed. It is possible for incorrect values to appear. Refer to information at About Latest Weather Observations and please check the disclaimer before using these data.